createdAt,value
2019-05-19T00:01:52.451Z,18.20
2019-05-19T00:04:21.999Z,18.20
2019-05-19T00:06:51.903Z,18.20
2019-05-19T00:09:21.493Z,18.20
2019-05-19T00:11:51.022Z,18.10
2019-05-19T00:14:20.686Z,18.10
2019-05-19T00:16:50.255Z,18.00
2019-05-19T00:19:26.902Z,17.90
2019-05-19T00:21:51.109Z,17.80
2019-05-19T00:24:20.705Z,17.70
2019-05-19T00:26:50.543Z,17.70
2019-05-19T00:29:32.482Z,17.60
2019-05-19T00:32:02.275Z,17.50
2019-05-19T00:34:31.938Z,17.50
2019-05-19T00:37:01.809Z,17.40
2019-05-19T00:39:31.767Z,17.40
2019-05-19T00:42:01.310Z,17.30
2019-05-19T00:44:31.187Z,17.30
2019-05-19T00:47:00.747Z,17.30
2019-05-19T00:49:41.003Z,17.30
2019-05-19T00:52:02.246Z,17.20
2019-05-19T00:54:31.955Z,17.30
2019-05-19T00:57:04.182Z,17.20
2019-05-19T00:59:34.271Z,17.20
2019-05-19T01:02:03.871Z,17.10
2019-05-19T01:04:33.427Z,17.10
2019-05-19T01:07:03.022Z,17.00
2019-05-19T01:09:32.650Z,17.00
2019-05-19T01:12:02.235Z,17.00
2019-05-19T01:14:31.831Z,17.00
2019-05-19T01:17:03.482Z,16.90
2019-05-19T01:19:33.352Z,16.90
2019-05-19T01:22:03.254Z,16.90
2019-05-19T01:24:33.160Z,16.90
2019-05-19T01:27:02.750Z,16.90
2019-05-19T01:29:32.390Z,16.80
2019-05-19T01:32:01.950Z,16.80
2019-05-19T01:34:31.766Z,16.70
2019-05-19T01:37:01.634Z,16.60
2019-05-19T01:39:31.307Z,16.60
2019-05-19T01:42:00.898Z,16.50
2019-05-19T01:44:30.713Z,16.50
2019-05-19T01:47:00.554Z,16.40
2019-05-19T01:49:30.118Z,16.40
2019-05-19T01:52:00.107Z,16.30
2019-05-19T01:54:29.703Z,16.30
2019-05-19T01:56:59.596Z,16.30
2019-05-19T01:59:29.306Z,16.20
2019-05-19T02:01:59.056Z,16.20
2019-05-19T02:04:28.649Z,16.20
2019-05-19T02:06:58.333Z,16.10
2019-05-19T02:09:27.903Z,16.10
2019-05-19T02:11:57.588Z,16.10
2019-05-19T02:14:27.222Z,16.10
2019-05-19T02:16:56.832Z,16.10
2019-05-19T02:19:26.390Z,16.00
2019-05-19T02:21:55.970Z,15.90
2019-05-19T02:24:25.574Z,15.90
2019-05-19T02:26:55.229Z,15.80
2019-05-19T02:29:24.807Z,15.80
2019-05-19T02:31:54.689Z,15.80
2019-05-19T02:34:24.271Z,15.80
2019-05-19T02:36:53.843Z,15.80
2019-05-19T02:39:23.751Z,15.80
2019-05-19T02:41:53.285Z,15.70
2019-05-19T02:44:23.095Z,15.70
2019-05-19T02:46:52.667Z,15.70
2019-05-19T02:49:23.008Z,15.70
2019-05-19T02:51:52.580Z,15.60
2019-05-19T02:54:26.733Z,15.60
2019-05-19T02:56:56.633Z,15.60
2019-05-19T02:59:26.406Z,15.50
2019-05-19T03:02:04.862Z,15.50
2019-05-19T03:04:35.503Z,15.40
2019-05-19T03:07:05.109Z,15.40
2019-05-19T03:09:34.665Z,15.40
2019-05-19T03:12:04.294Z,15.40
2019-05-19T03:14:34.109Z,15.30
2019-05-19T03:17:03.959Z,15.30
2019-05-19T03:19:33.777Z,15.30
2019-05-19T03:22:03.387Z,15.30
2019-05-19T03:24:33.226Z,15.30
2019-05-19T03:27:02.884Z,15.30
2019-05-19T03:29:37.198Z,15.30
2019-05-19T03:32:25.847Z,15.30
2019-05-19T03:35:03.637Z,15.30
2019-05-19T03:37:34.383Z,15.20
2019-05-19T03:40:05.920Z,15.30
2019-05-19T03:42:35.470Z,15.30
2019-05-19T03:45:05.064Z,15.30
2019-05-19T03:47:34.653Z,15.30
2019-05-19T03:50:04.417Z,15.30
2019-05-19T03:52:34.275Z,15.30
2019-05-19T03:55:04.042Z,15.30
2019-05-19T03:57:33.923Z,15.30
2019-05-19T04:00:35.830Z,15.20
2019-05-19T04:03:05.404Z,15.20
2019-05-19T04:05:35.025Z,15.20
2019-05-19T04:08:04.675Z,15.20
2019-05-19T04:10:34.583Z,15.20
2019-05-19T04:13:04.155Z,15.20
2019-05-19T04:15:33.783Z,15.20
2019-05-19T04:18:03.362Z,15.20
2019-05-19T04:20:32.911Z,15.20
2019-05-19T04:23:20.614Z,15.20
2019-05-19T04:25:49.119Z,15.20
2019-05-19T04:28:20.701Z,15.20
2019-05-19T04:30:50.358Z,15.20
2019-05-19T04:33:19.945Z,15.20
2019-05-19T04:35:49.524Z,15.20
2019-05-19T04:38:19.102Z,15.30
2019-05-19T04:40:48.674Z,15.30
2019-05-19T04:43:18.505Z,15.30
2019-05-19T04:45:48.383Z,15.40
2019-05-19T04:48:17.951Z,15.40
2019-05-19T04:50:47.532Z,15.50
2019-05-19T04:53:17.654Z,15.60
2019-05-19T04:58:44.314Z,15.80
2019-05-19T05:01:14.150Z,15.90
2019-05-19T05:03:43.716Z,16.10
2019-05-19T05:06:14.266Z,16.50
2019-05-19T05:08:45.065Z,17.10
2019-05-19T05:11:14.630Z,17.70
2019-05-19T05:13:44.518Z,18.50
2019-05-19T05:16:14.222Z,19.20
2019-05-19T05:18:44.050Z,20.00
2019-05-19T05:21:13.976Z,20.70
2019-05-19T05:23:49.025Z,21.40
2019-05-19T05:26:19.775Z,22.10
2019-05-19T05:28:49.310Z,22.80
2019-05-19T05:31:18.876Z,23.50
2019-05-19T05:33:48.442Z,24.20
2019-05-19T05:36:18.002Z,24.80
2019-05-19T05:38:47.940Z,25.50
2019-05-19T05:41:17.761Z,26.10
2019-05-19T05:43:47.412Z,26.70
2019-05-19T05:46:16.964Z,27.20
2019-05-19T05:48:46.505Z,27.60
2019-05-19T05:51:16.349Z,27.80
2019-05-19T05:53:45.959Z,27.90
2019-05-19T05:56:15.542Z,28.00
2019-05-19T05:58:45.133Z,28.00
2019-05-19T06:01:33.990Z,28.10
2019-05-19T06:04:03.579Z,28.20
2019-05-19T06:06:33.155Z,28.30
2019-05-19T06:09:02.726Z,28.40
2019-05-19T06:11:32.294Z,28.50
2019-05-19T06:14:01.881Z,28.80
2019-05-19T06:16:31.687Z,29.00
2019-05-19T06:19:01.307Z,29.10
2019-05-19T06:21:30.846Z,29.30
2019-05-19T06:24:00.426Z,29.50
2019-05-19T06:26:29.995Z,29.80
2019-05-19T06:29:06.272Z,30.20
2019-05-19T06:31:35.815Z,30.60
2019-05-19T06:34:05.751Z,31.10
2019-05-19T06:36:35.606Z,31.40
2019-05-19T06:39:06.860Z,31.80
2019-05-19T06:41:36.475Z,31.90
2019-05-19T06:44:06.067Z,32.00
2019-05-19T06:46:35.751Z,32.20
2019-05-19T06:49:06.183Z,32.40
2019-05-19T06:51:35.718Z,32.80
2019-05-19T06:54:05.303Z,33.30
2019-05-19T06:56:35.188Z,33.80
2019-05-19T06:59:49.256Z,34.00
2019-05-19T07:02:18.871Z,34.00
2019-05-19T07:04:48.566Z,33.70
2019-05-19T07:07:18.170Z,33.50
2019-05-19T07:09:57.814Z,33.50
2019-05-19T07:12:19.258Z,33.70
2019-05-19T07:14:48.839Z,33.90
2019-05-19T07:17:18.415Z,33.90
2019-05-19T07:19:47.978Z,33.80
2019-05-19T07:22:17.535Z,33.70
2019-05-19T07:24:47.102Z,33.60
2019-05-19T07:27:17.170Z,33.40
2019-05-19T07:29:47.273Z,33.20
2019-05-19T07:32:16.894Z,33.00
2019-05-19T07:34:46.866Z,32.80
2019-05-19T07:37:36.591Z,32.70
2019-05-19T07:40:06.250Z,32.90
2019-05-19T07:42:35.822Z,33.40
2019-05-19T07:45:05.914Z,33.90
2019-05-19T07:47:35.554Z,34.40
2019-05-19T07:50:06.043Z,34.80
2019-05-19T07:52:35.643Z,35.10
2019-05-19T07:55:34.555Z,35.40
2019-05-19T07:58:04.239Z,35.80
2019-05-19T08:00:33.860Z,36.30
2019-05-19T08:03:03.470Z,36.80
2019-05-19T08:05:33.776Z,37.30
2019-05-19T08:08:03.379Z,37.80
2019-05-19T08:10:32.975Z,38.40
2019-05-19T08:13:02.842Z,39.10
2019-05-19T08:15:32.914Z,39.70
2019-05-19T08:18:03.923Z,40.20
2019-05-19T08:20:35.673Z,40.70
2019-05-19T08:23:05.656Z,41.10
2019-05-19T08:25:35.226Z,41.50
2019-05-19T08:28:08.724Z,42.10
2019-05-19T08:30:36.952Z,42.60
2019-05-19T08:33:06.813Z,43.10
2019-05-19T08:35:36.430Z,43.60
2019-05-19T08:38:06.066Z,44.10
2019-05-19T08:40:35.773Z,44.60
2019-05-19T08:43:08.738Z,44.90
2019-05-19T08:45:41.659Z,45.20
2019-05-19T08:48:19.715Z,45.40
2019-05-19T08:50:49.051Z,45.60
2019-05-19T08:53:18.742Z,45.80
2019-05-19T08:55:49.847Z,46.00
2019-05-19T08:58:21.331Z,46.10
2019-05-19T09:00:51.277Z,46.30
2019-05-19T09:03:21.862Z,46.40
2019-05-19T09:05:51.603Z,46.60
2019-05-19T09:08:21.194Z,46.50
2019-05-19T09:10:51.170Z,46.30
2019-05-19T09:13:20.841Z,46.30
2019-05-19T09:15:50.676Z,46.30
2019-05-19T09:18:20.454Z,46.40
2019-05-19T09:20:50.030Z,46.40
2019-05-19T09:23:20.630Z,46.40
2019-05-19T09:25:50.438Z,46.60
2019-05-19T09:28:20.104Z,46.60
2019-05-19T09:30:49.803Z,46.70
2019-05-19T09:33:19.513Z,46.80
2019-05-19T09:35:53.906Z,46.80
2019-05-19T09:38:24.530Z,46.80
2019-05-19T09:40:54.419Z,46.90
2019-05-19T09:43:24.058Z,46.90
2019-05-19T09:45:53.922Z,47.00
2019-05-19T09:48:23.834Z,47.30
2019-05-19T09:50:53.578Z,47.50
2019-05-19T09:53:23.355Z,47.70
2019-05-19T09:55:52.989Z,47.90
2019-05-19T09:58:22.578Z,48.10
2019-05-19T10:00:52.455Z,48.10
2019-05-19T10:03:22.187Z,48.20
2019-05-19T10:05:52.148Z,48.20
2019-05-19T10:08:32.095Z,48.20
2019-05-19T10:11:24.579Z,48.20
2019-05-19T10:13:54.191Z,48.10
2019-05-19T10:16:23.796Z,48.00
2019-05-19T10:18:53.520Z,47.70
2019-05-19T10:21:23.415Z,47.40
2019-05-19T10:23:53.026Z,47.20
2019-05-19T10:26:22.685Z,47.00
2019-05-19T10:28:52.520Z,47.00
2019-05-19T10:31:22.662Z,47.00
2019-05-19T10:33:52.566Z,46.90
2019-05-19T10:36:22.151Z,46.90
2019-05-19T10:38:52.131Z,46.70
2019-05-19T10:41:21.886Z,46.50
2019-05-19T10:44:00.844Z,46.40
2019-05-19T10:46:31.159Z,46.30
2019-05-19T10:49:01.262Z,46.10
2019-05-19T10:51:32.150Z,45.90
2019-05-19T10:54:01.876Z,45.70
2019-05-19T10:56:31.487Z,45.40
2019-05-19T10:59:01.096Z,45.10
2019-05-19T11:01:30.659Z,44.90
2019-05-19T11:04:00.512Z,44.40
2019-05-19T11:06:30.167Z,44.00
2019-05-19T11:08:59.778Z,43.50
2019-05-19T11:11:29.403Z,43.20
2019-05-19T11:13:59.396Z,43.00
2019-05-19T11:17:08.063Z,42.80
2019-05-19T11:19:37.894Z,42.70
2019-05-19T11:22:07.638Z,42.30
2019-05-19T11:24:37.211Z,42.00
2019-05-19T11:27:06.783Z,41.70
2019-05-19T11:29:36.363Z,41.50
2019-05-19T11:32:05.911Z,41.30
2019-05-19T11:34:36.548Z,41.10
2019-05-19T11:37:07.406Z,40.90
2019-05-19T11:39:37.846Z,40.70
2019-05-19T11:42:07.413Z,40.50
2019-05-19T11:44:37.111Z,40.30
2019-05-19T11:47:06.699Z,40.20
2019-05-19T11:49:36.321Z,40.00
2019-05-19T11:52:05.887Z,39.60
2019-05-19T11:54:35.535Z,39.40
2019-05-19T11:57:05.167Z,39.20
2019-05-19T11:59:34.725Z,39.00
2019-05-19T12:02:04.268Z,38.80
2019-05-19T12:04:34.111Z,38.70
2019-05-19T12:07:04.947Z,38.50
2019-05-19T12:09:34.806Z,38.40
2019-05-19T12:12:04.351Z,38.10
2019-05-19T12:14:33.925Z,37.60
2019-05-19T12:17:03.606Z,37.10
2019-05-19T12:19:33.242Z,36.60
2019-05-19T12:22:03.600Z,36.20
2019-05-19T12:24:34.549Z,35.90
2019-05-19T12:27:04.111Z,35.80
2019-05-19T12:29:33.825Z,35.70
2019-05-19T12:32:03.458Z,35.60
2019-05-19T12:34:42.359Z,35.30
2019-05-19T12:37:11.958Z,35.10
2019-05-19T12:39:41.627Z,34.80
2019-05-19T12:42:11.278Z,34.50
2019-05-19T12:44:40.915Z,34.30
2019-05-19T12:47:10.558Z,34.00
2019-05-19T12:49:40.162Z,33.90
2019-05-19T12:52:09.790Z,33.70
2019-05-19T12:54:39.525Z,33.60
2019-05-19T12:57:09.083Z,33.50
2019-05-19T12:59:38.888Z,33.40
2019-05-19T13:02:08.583Z,33.30
2019-05-19T13:04:38.317Z,33.30
2019-05-19T13:07:08.135Z,33.30
2019-05-19T13:09:37.689Z,33.10
2019-05-19T13:12:07.669Z,32.90
2019-05-19T13:14:37.739Z,32.50
2019-05-19T13:17:07.422Z,32.10
2019-05-19T13:19:37.292Z,31.80
2019-05-19T13:22:06.964Z,31.50
2019-05-19T13:24:36.668Z,31.30
2019-05-19T13:27:06.236Z,31.00
2019-05-19T13:29:37.328Z,30.80
2019-05-19T13:32:07.120Z,30.50
2019-05-19T13:34:36.811Z,30.30
2019-05-19T13:37:06.826Z,30.10
2019-05-19T13:39:36.667Z,30.00
2019-05-19T13:42:06.321Z,29.90
2019-05-19T13:44:36.183Z,29.90
2019-05-19T13:47:06.226Z,29.80
2019-05-19T13:49:35.987Z,29.90
2019-05-19T13:52:05.527Z,29.90
2019-05-19T13:54:35.538Z,29.90
2019-05-19T13:57:12.311Z,29.90
2019-05-19T13:59:36.924Z,29.80
2019-05-19T14:02:06.579Z,29.80
2019-05-19T14:04:46.294Z,29.80
2019-05-19T14:07:16.072Z,29.80
2019-05-19T14:09:45.923Z,29.80
2019-05-19T14:12:15.802Z,29.70
2019-05-19T14:14:45.523Z,29.70
2019-05-19T14:17:15.209Z,29.70
2019-05-19T14:19:44.931Z,29.70
2019-05-19T14:22:14.502Z,29.60
2019-05-19T14:24:44.418Z,29.50
2019-05-19T14:27:27.356Z,29.50
2019-05-19T14:29:45.803Z,29.40
2019-05-19T14:32:15.713Z,29.40
2019-05-19T14:34:45.571Z,29.40
2019-05-19T14:37:15.143Z,29.40
2019-05-19T14:39:44.755Z,29.40
2019-05-19T14:42:17.698Z,29.40
2019-05-19T14:44:47.501Z,29.50
2019-05-19T14:47:17.154Z,29.40
2019-05-19T14:49:47.143Z,29.40
2019-05-19T14:55:25.479Z,29.40
2019-05-19T14:57:55.170Z,29.40
2019-05-19T15:00:25.238Z,29.50
2019-05-19T15:02:54.926Z,29.40
2019-05-19T15:05:24.932Z,29.50
2019-05-19T15:07:54.670Z,29.50
2019-05-19T15:10:24.760Z,29.40
2019-05-19T15:12:55.236Z,29.40
2019-05-19T15:15:25.158Z,29.30
2019-05-19T15:17:54.755Z,29.30
2019-05-19T15:20:24.440Z,29.20
2019-05-19T15:23:02.673Z,29.20
2019-05-19T15:25:32.865Z,29.10
2019-05-19T15:28:05.223Z,29.00
2019-05-19T15:30:42.060Z,28.90
2019-05-19T15:33:11.767Z,28.80
2019-05-19T15:35:41.815Z,28.70
2019-05-19T15:38:12.227Z,28.50
2019-05-19T15:40:41.930Z,28.50
2019-05-19T15:43:11.634Z,28.30
2019-05-19T15:45:41.594Z,28.20
2019-05-19T15:48:11.546Z,28.20
2019-05-19T15:50:41.592Z,28.10
2019-05-19T15:53:11.582Z,28.20
2019-05-19T15:55:53.789Z,28.20
2019-05-19T15:58:21.389Z,28.20
2019-05-19T16:00:51.365Z,28.20
2019-05-19T16:03:21.079Z,28.20
2019-05-19T16:05:50.755Z,28.30
2019-05-19T16:08:21.387Z,28.20
2019-05-19T16:10:51.044Z,28.20
2019-05-19T16:13:22.029Z,28.20
2019-05-19T16:15:52.183Z,28.30
2019-05-19T16:18:23.139Z,28.20
2019-05-19T16:20:53.385Z,28.20
2019-05-19T16:23:34.652Z,28.20
2019-05-19T16:26:06.041Z,28.10
2019-05-19T16:28:37.794Z,28.00
2019-05-19T16:31:08.902Z,28.00
2019-05-19T16:33:38.779Z,27.90
2019-05-19T16:36:09.023Z,27.80
2019-05-19T16:38:39.710Z,27.70
2019-05-19T16:41:17.453Z,27.60
2019-05-19T16:43:59.751Z,27.50
2019-05-19T16:46:29.647Z,27.40
2019-05-19T16:49:00.110Z,27.40
2019-05-19T16:51:32.524Z,27.30
2019-05-19T16:54:05.655Z,27.30
2019-05-19T16:56:35.663Z,27.30
2019-05-19T16:59:05.849Z,27.40
2019-05-19T17:01:36.567Z,27.40
2019-05-19T17:04:06.797Z,27.40
2019-05-19T17:06:37.117Z,27.50
2019-05-19T17:09:07.060Z,27.50
2019-05-19T17:11:37.391Z,27.50
2019-05-19T17:14:07.098Z,27.50
2019-05-19T17:16:36.880Z,27.50
2019-05-19T17:19:06.652Z,27.40
2019-05-19T17:21:37.143Z,27.40
2019-05-19T17:24:06.948Z,27.40
2019-05-19T17:26:37.039Z,27.30
2019-05-19T17:29:06.693Z,27.20
2019-05-19T17:31:36.551Z,27.10
2019-05-19T17:34:06.131Z,26.90
2019-05-19T17:36:36.023Z,26.60
2019-05-19T17:39:07.098Z,26.50
2019-05-19T17:41:37.125Z,26.30
2019-05-19T17:44:06.957Z,26.10
2019-05-19T17:46:37.643Z,26.00
2019-05-19T17:49:07.610Z,25.90
2019-05-19T17:51:37.466Z,25.80
2019-05-19T17:54:07.378Z,25.60
2019-05-19T17:56:37.428Z,25.40
2019-05-19T17:59:16.119Z,25.30
2019-05-19T18:02:03.236Z,25.20
2019-05-19T18:04:33.313Z,25.10
2019-05-19T18:07:02.991Z,24.90
2019-05-19T18:09:33.060Z,24.80
2019-05-19T18:12:02.670Z,24.70
2019-05-19T18:14:32.633Z,24.50
2019-05-19T18:17:02.704Z,24.40
2019-05-19T18:19:32.565Z,24.30
2019-05-19T18:22:02.678Z,24.20
2019-05-19T18:24:32.353Z,24.10
2019-05-19T18:27:02.113Z,24.00
2019-05-19T18:29:32.198Z,23.90
2019-05-19T18:32:02.190Z,23.80
2019-05-19T18:34:32.499Z,23.80
2019-05-19T18:37:02.218Z,23.70
2019-05-19T18:39:31.875Z,23.60
2019-05-19T18:42:06.193Z,23.50
2019-05-19T18:44:38.960Z,23.40
2019-05-19T18:47:08.903Z,23.30
2019-05-19T18:49:39.424Z,23.30
2019-05-19T18:52:08.999Z,23.20
2019-05-19T18:54:39.168Z,23.10
2019-05-19T18:57:09.867Z,23.00
2019-05-19T18:59:47.250Z,23.00
2019-05-19T19:02:10.941Z,22.90
2019-05-19T19:04:40.546Z,22.90
2019-05-19T19:07:10.637Z,22.80
2019-05-19T19:09:41.092Z,22.80
2019-05-19T19:12:10.888Z,22.70
2019-05-19T19:14:40.569Z,22.70
2019-05-19T19:17:11.996Z,22.60
2019-05-19T19:19:44.490Z,22.60
2019-05-19T19:22:14.479Z,22.50
2019-05-19T19:24:44.419Z,22.50
2019-05-19T19:27:13.978Z,22.50
2019-05-19T19:29:44.173Z,22.50
2019-05-19T19:32:14.175Z,22.50
2019-05-19T19:34:43.891Z,22.50
2019-05-19T19:37:13.503Z,22.40
2019-05-19T19:39:43.082Z,22.40
2019-05-19T19:42:12.794Z,22.30
2019-05-19T19:44:42.642Z,22.20
2019-05-19T19:47:12.561Z,22.20
2019-05-19T19:49:42.123Z,22.10
2019-05-19T19:52:11.770Z,22.10
2019-05-19T19:54:43.034Z,22.00
2019-05-19T19:57:12.938Z,22.00
2019-05-19T19:59:42.850Z,21.90
2019-05-19T20:02:12.505Z,21.90
2019-05-19T20:04:42.453Z,21.90
2019-05-19T20:07:13.831Z,21.90
2019-05-19T20:09:43.498Z,21.80
2019-05-19T20:12:13.423Z,21.80
2019-05-19T20:14:43.440Z,21.70
2019-05-19T20:17:13.317Z,21.70
2019-05-19T20:19:43.049Z,21.60
2019-05-19T20:22:12.960Z,21.60
2019-05-19T20:24:42.842Z,21.50
2019-05-19T20:27:16.417Z,21.50
2019-05-19T20:29:47.621Z,21.40
2019-05-19T20:32:17.241Z,21.40
2019-05-19T20:34:46.914Z,21.30
2019-05-19T20:37:17.150Z,21.30
2019-05-19T20:39:47.065Z,21.30
2019-05-19T20:42:17.015Z,21.20
2019-05-19T20:44:46.915Z,21.20
2019-05-19T20:47:16.794Z,21.20
2019-05-19T20:49:46.475Z,21.10
2019-05-19T20:52:16.058Z,21.10
2019-05-19T20:54:45.942Z,21.00
2019-05-19T20:57:15.543Z,21.00
2019-05-19T20:59:45.183Z,20.90
2019-05-19T21:02:18.598Z,20.90
2019-05-19T21:04:54.578Z,20.80
2019-05-19T21:07:26.035Z,20.80
2019-05-19T21:09:55.628Z,20.80
2019-05-19T21:12:25.633Z,20.70
2019-05-19T21:14:55.199Z,20.70
2019-05-19T21:17:24.755Z,20.70
2019-05-19T21:19:54.371Z,20.60
2019-05-19T21:22:25.282Z,20.60
2019-05-19T21:24:55.190Z,20.60
2019-05-19T21:27:24.804Z,20.50
2019-05-19T21:29:55.072Z,20.50
2019-05-19T21:32:24.737Z,20.40
2019-05-19T21:34:54.406Z,20.40
2019-05-19T21:37:23.948Z,20.30
2019-05-19T21:39:53.518Z,20.20
2019-05-19T21:42:23.167Z,20.20
2019-05-19T21:44:52.734Z,20.20
2019-05-19T21:47:22.360Z,20.20
2019-05-19T21:49:52.227Z,20.20
2019-05-19T21:52:21.839Z,20.20
2019-05-19T21:54:51.395Z,20.20
2019-05-19T21:57:20.956Z,20.20
2019-05-19T21:59:50.497Z,20.10
2019-05-19T22:02:20.399Z,20.10
2019-05-19T22:04:50.026Z,20.10
2019-05-19T22:07:30.352Z,20.10
2019-05-19T22:09:59.901Z,20.10
2019-05-19T22:12:29.828Z,20.10
2019-05-19T22:14:59.394Z,20.10
2019-05-19T22:17:28.986Z,20.10
2019-05-19T22:19:58.833Z,20.10
2019-05-19T22:22:29.024Z,20.10
2019-05-19T22:25:01.414Z,20.00
2019-05-19T22:27:31.191Z,20.00
2019-05-19T22:30:00.746Z,20.00
2019-05-19T22:32:30.389Z,20.00
2019-05-19T22:35:00.248Z,20.00
2019-05-19T22:37:29.814Z,20.00
2019-05-19T22:39:59.846Z,20.00
2019-05-19T22:42:30.462Z,19.90
2019-05-19T22:45:00.027Z,20.00
2019-05-19T22:47:29.638Z,20.00
2019-05-19T22:49:59.574Z,19.90
2019-05-19T22:52:29.158Z,19.90
2019-05-19T22:54:59.211Z,20.00
2019-05-19T22:57:28.882Z,20.00
2019-05-19T22:59:58.514Z,20.00
2019-05-19T23:02:29.177Z,20.00
2019-05-19T23:04:59.027Z,20.00
2019-05-19T23:07:29.765Z,20.00
2019-05-19T23:09:59.903Z,19.90
2019-05-19T23:12:29.499Z,19.90
2019-05-19T23:14:59.371Z,19.90
2019-05-19T23:17:29.027Z,19.90
2019-05-19T23:19:58.839Z,19.90
2019-05-19T23:22:28.399Z,19.90
2019-05-19T23:24:57.965Z,19.80
2019-05-19T23:27:27.523Z,19.80
2019-05-19T23:29:57.107Z,19.80
2019-05-19T23:32:26.928Z,19.80
2019-05-19T23:34:56.471Z,19.80
2019-05-19T23:37:26.675Z,19.80
2019-05-19T23:39:56.235Z,19.70
2019-05-19T23:42:26.329Z,19.70
2019-05-19T23:44:55.906Z,19.70
2019-05-19T23:47:25.474Z,19.60
2019-05-19T23:49:55.107Z,19.60
2019-05-19T23:52:24.678Z,19.60
2019-05-19T23:54:54.343Z,19.60
2019-05-19T23:57:23.963Z,19.60
2019-05-19T23:59:53.521Z,19.60
